LEPP/PNA METAR and TAF weather

Enter ICAO airport designator
Station Type Date Time Source
LEPP METAR 2020/10/29 16:00 UTC NOAA

LEPP 291600Z VRB01KT CAVOK 19/09 Q1025


Station Type Date Time Source
LEPP Decoded METAR 2020/10/29 16:00 UTC NOAA

Pamplona / Noain, Spain (LEPP) 42-46N 001-38W 453M
Oct 29, 2020 - 12:00 PM EDT / 2020.10.29 1600 UTC
Wind: Variable at 1 MPH (1 KT):0
Visibility: greater than 7 mile(s):0
Temperature: 66 F (19 C)
Dew Point: 48 F (9 C)
Relative Humidity: 52%
Pressure (altimeter): 30.27 in. Hg (1025 hPa)
ob: LEPP 291600Z VRB01KT CAVOK 19/09 Q1025
cycle: 16

Station Type Date Time Source
LEPP TAF 2020/10/29 15:27 UTC NOAA

TAF LEPP 291400Z 2915/3015 VRB05KT CAVOK TX20/3015Z TN05/3007Z

Example: see airport list